sensor_id;sensor_type;location;lat;lon;timestamp;P1;durP1;ratioP1;P2;durP2;ratioP2
17347;SDS011;8791;50.876;4.342;2023-08-24T00:02:00;12.77;;;5.65;;
17347;SDS011;8791;50.876;4.342;2023-08-24T00:04:28;14.50;;;6.90;;
17347;SDS011;8791;50.876;4.342;2023-08-24T00:06:55;9.85;;;5.35;;
17347;SDS011;8791;50.876;4.342;2023-08-24T00:09:22;18.05;;;5.10;;
17347;SDS011;8791;50.876;4.342;2023-08-24T00:11:49;15.43;;;5.80;;
17347;SDS011;8791;50.876;4.342;2023-08-24T00:14:16;12.52;;;6.05;;
17347;SDS011;8791;50.876;4.342;2023-08-24T00:16:45;13.77;;;5.63;;
17347;SDS011;8791;50.876;4.342;2023-08-24T00:19:12;16.83;;;5.85;;
17347;SDS011;8791;50.876;4.342;2023-08-24T00:21:39;10.38;;;5.25;;
17347;SDS011;8791;50.876;4.342;2023-08-24T00:24:06;14.27;;;5.72;;
17347;SDS011;8791;50.876;4.342;2023-08-24T00:26:33;10.15;;;5.90;;
17347;SDS011;8791;50.876;4.342;2023-08-24T00:29:00;10.98;;;5.57;;
17347;SDS011;8791;50.876;4.342;2023-08-24T00:31:27;9.50;;;5.40;;
17347;SDS011;8791;50.876;4.342;2023-08-24T00:33:56;8.00;;;5.40;;
17347;SDS011;8791;50.876;4.342;2023-08-24T00:36:22;7.22;;;5.45;;
17347;SDS011;8791;50.876;4.342;2023-08-24T00:38:49;7.07;;;5.47;;
17347;SDS011;8791;50.876;4.342;2023-08-24T00:41:18;9.02;;;4.65;;
17347;SDS011;8791;50.876;4.342;2023-08-24T00:43:46;7.15;;;5.80;;
17347;SDS011;8791;50.876;4.342;2023-08-24T00:46:15;12.07;;;5.68;;
17347;SDS011;8791;50.876;4.342;2023-08-24T00:48:44;8.40;;;5.43;;
17347;SDS011;8791;50.876;4.342;2023-08-24T00:51:13;11.30;;;5.40;;
17347;SDS011;8791;50.876;4.342;2023-08-24T00:53:40;10.82;;;5.38;;
17347;SDS011;8791;50.876;4.342;2023-08-24T00:56:07;10.40;;;5.60;;
17347;SDS011;8791;50.876;4.342;2023-08-24T00:58:34;8.35;;;5.13;;
17347;SDS011;8791;50.876;4.342;2023-08-24T01:01:01;8.63;;;5.40;;
17347;SDS011;8791;50.876;4.342;2023-08-24T01:03:29;9.50;;;5.32;;
17347;SDS011;8791;50.876;4.342;2023-08-24T01:05:56;11.13;;;5.35;;
17347;SDS011;8791;50.876;4.342;2023-08-24T01:08:24;13.15;;;4.93;;
17347;SDS011;8791;50.876;4.342;2023-08-24T01:10:53;8.32;;;4.90;;
17347;SDS011;8791;50.876;4.342;2023-08-24T01:13:27;10.57;;;5.35;;
17347;SDS011;8791;50.876;4.342;2023-08-24T01:16:04;8.68;;;5.18;;
17347;SDS011;8791;50.876;4.342;2023-08-24T01:18:37;9.43;;;5.43;;
17347;SDS011;8791;50.876;4.342;2023-08-24T01:21:05;7.38;;;5.18;;
17347;SDS011;8791;50.876;4.342;2023-08-24T01:23:36;10.40;;;5.05;;
17347;SDS011;8791;50.876;4.342;2023-08-24T01:26:22;7.53;;;5.22;;
17347;SDS011;8791;50.876;4.342;2023-08-24T01:28:49;8.07;;;5.43;;
17347;SDS011;8791;50.876;4.342;2023-08-24T01:31:17;6.60;;;5.78;;
17347;SDS011;8791;50.876;4.342;2023-08-24T01:33:44;10.32;;;5.88;;
17347;SDS011;8791;50.876;4.342;2023-08-24T01:36:11;11.05;;;5.05;;
17347;SDS011;8791;50.876;4.342;2023-08-24T01:38:40;11.82;;;5.45;;
17347;SDS011;8791;50.876;4.342;2023-08-24T01:41:11;9.68;;;5.53;;
17347;SDS011;8791;50.876;4.342;2023-08-24T01:43:45;15.02;;;5.65;;
17347;SDS011;8791;50.876;4.342;2023-08-24T01:46:15;7.45;;;6.10;;
17347;SDS011;8791;50.876;4.342;2023-08-24T01:48:44;13.15;;;5.88;;
17347;SDS011;8791;50.876;4.342;2023-08-24T01:51:11;12.88;;;6.15;;
17347;SDS011;8791;50.876;4.342;2023-08-24T01:53:39;14.43;;;6.18;;
17347;SDS011;8791;50.876;4.342;2023-08-24T01:56:08;14.98;;;6.32;;
17347;SDS011;8791;50.876;4.342;2023-08-24T01:58:36;10.60;;;5.22;;
17347;SDS011;8791;50.876;4.342;2023-08-24T02:01:04;9.80;;;5.70;;
17347;SDS011;8791;50.876;4.342;2023-08-24T02:03:31;15.32;;;5.85;;
17347;SDS011;8791;50.876;4.342;2023-08-24T02:05:58;10.35;;;5.63;;
17347;SDS011;8791;50.876;4.342;2023-08-24T02:08:25;14.38;;;6.93;;
17347;SDS011;8791;50.876;4.342;2023-08-24T02:10:52;19.52;;;6.88;;
17347;SDS011;8791;50.876;4.342;2023-08-24T02:13:19;14.20;;;6.57;;
17347;SDS011;8791;50.876;4.342;2023-08-24T02:15:46;12.65;;;7.20;;
17347;SDS011;8791;50.876;4.342;2023-08-24T02:18:14;17.67;;;6.90;;
17347;SDS011;8791;50.876;4.342;2023-08-24T02:20:41;12.77;;;7.13;;
17347;SDS011;8791;50.876;4.342;2023-08-24T02:23:08;11.40;;;7.03;;
17347;SDS011;8791;50.876;4.342;2023-08-24T02:25:35;12.13;;;6.97;;
17347;SDS011;8791;50.876;4.342;2023-08-24T02:28:08;10.95;;;6.70;;
17347;SDS011;8791;50.876;4.342;2023-08-24T02:30:36;11.10;;;7.03;;
17347;SDS011;8791;50.876;4.342;2023-08-24T02:33:03;12.32;;;6.95;;
17347;SDS011;8791;50.876;4.342;2023-08-24T02:35:34;11.57;;;6.90;;
17347;SDS011;8791;50.876;4.342;2023-08-24T02:38:02;9.02;;;6.97;;
17347;SDS011;8791;50.876;4.342;2023-08-24T02:40:29;12.40;;;6.78;;
17347;SDS011;8791;50.876;4.342;2023-08-24T02:42:56;12.40;;;5.97;;
17347;SDS011;8791;50.876;4.342;2023-08-24T02:45:23;8.75;;;6.60;;
17347;SDS011;8791;50.876;4.342;2023-08-24T02:47:50;7.75;;;6.60;;
17347;SDS011;8791;50.876;4.342;2023-08-24T02:50:17;8.00;;;6.45;;
17347;SDS011;8791;50.876;4.342;2023-08-24T02:52:45;8.13;;;6.13;;
17347;SDS011;8791;50.876;4.342;2023-08-24T02:55:12;8.25;;;6.63;;
17347;SDS011;8791;50.876;4.342;2023-08-24T02:57:39;9.23;;;6.07;;
17347;SDS011;8791;50.876;4.342;2023-08-24T03:00:07;7.18;;;6.38;;
17347;SDS011;8791;50.876;4.342;2023-08-24T03:02:34;12.73;;;6.75;;
17347;SDS011;8791;50.876;4.342;2023-08-24T03:05:02;8.27;;;6.70;;
17347;SDS011;8791;50.876;4.342;2023-08-24T03:07:29;12.77;;;6.65;;
17347;SDS011;8791;50.876;4.342;2023-08-24T03:09:57;14.93;;;6.40;;
17347;SDS011;8791;50.876;4.342;2023-08-24T03:12:24;9.57;;;5.93;;
17347;SDS011;8791;50.876;4.342;2023-08-24T03:14:51;12.07;;;7.53;;
17347;SDS011;8791;50.876;4.342;2023-08-24T03:17:19;9.07;;;7.20;;
17347;SDS011;8791;50.876;4.342;2023-08-24T03:19:47;10.25;;;6.75;;
17347;SDS011;8791;50.876;4.342;2023-08-24T03:22:13;8.23;;;6.60;;
17347;SDS011;8791;50.876;4.342;2023-08-24T03:24:40;11.98;;;6.97;;
17347;SDS011;8791;50.876;4.342;2023-08-24T03:27:09;8.18;;;6.00;;
17347;SDS011;8791;50.876;4.342;2023-08-24T03:29:36;10.32;;;6.68;;
17347;SDS011;8791;50.876;4.342;2023-08-24T03:32:03;15.40;;;6.95;;
17347;SDS011;8791;50.876;4.342;2023-08-24T03:34:30;8.65;;;6.28;;
17347;SDS011;8791;50.876;4.342;2023-08-24T03:37:00;19.67;;;6.97;;
17347;SDS011;8791;50.876;4.342;2023-08-24T03:39:28;8.02;;;6.43;;
17347;SDS011;8791;50.876;4.342;2023-08-24T03:41:55;9.55;;;6.82;;
17347;SDS011;8791;50.876;4.342;2023-08-24T03:44:24;9.40;;;6.65;;
17347;SDS011;8791;50.876;4.342;2023-08-24T03:46:51;7.50;;;6.47;;
17347;SDS011;8791;50.876;4.342;2023-08-24T03:49:17;14.32;;;6.95;;
17347;SDS011;8791;50.876;4.342;2023-08-24T03:51:44;10.52;;;6.30;;
17347;SDS011;8791;50.876;4.342;2023-08-24T03:54:11;7.80;;;6.30;;
17347;SDS011;8791;50.876;4.342;2023-08-24T03:56:38;12.63;;;7.03;;
17347;SDS011;8791;50.876;4.342;2023-08-24T03:59:05;8.27;;;6.15;;
17347;SDS011;8791;50.876;4.342;2023-08-24T04:01:34;9.45;;;6.45;;
17347;SDS011;8791;50.876;4.342;2023-08-24T04:04:00;16.77;;;6.90;;
17347;SDS011;8791;50.876;4.342;2023-08-24T04:06:28;13.93;;;6.50;;
17347;SDS011;8791;50.876;4.342;2023-08-24T04:08:55;13.35;;;7.05;;
17347;SDS011;8791;50.876;4.342;2023-08-24T04:11:22;11.40;;;6.20;;
17347;SDS011;8791;50.876;4.342;2023-08-24T04:13:48;9.63;;;7.07;;
17347;SDS011;8791;50.876;4.342;2023-08-24T04:16:15;10.95;;;6.82;;
17347;SDS011;8791;50.876;4.342;2023-08-24T04:18:46;9.85;;;6.32;;
17347;SDS011;8791;50.876;4.342;2023-08-24T04:21:13;11.80;;;6.65;;
17347;SDS011;8791;50.876;4.342;2023-08-24T04:23:40;18.48;;;7.20;;
17347;SDS011;8791;50.876;4.342;2023-08-24T04:26:10;13.05;;;7.43;;
17347;SDS011;8791;50.876;4.342;2023-08-24T04:28:37;9.68;;;6.78;;
17347;SDS011;8791;50.876;4.342;2023-08-24T04:31:04;16.67;;;6.97;;
17347;SDS011;8791;50.876;4.342;2023-08-24T04:33:30;14.63;;;6.53;;
17347;SDS011;8791;50.876;4.342;2023-08-24T04:35:59;11.48;;;6.40;;
17347;SDS011;8791;50.876;4.342;2023-08-24T04:38:28;8.00;;;6.13;;
17347;SDS011;8791;50.876;4.342;2023-08-24T04:40:55;13.20;;;6.72;;
17347;SDS011;8791;50.876;4.342;2023-08-24T04:43:23;13.00;;;6.90;;
17347;SDS011;8791;50.876;4.342;2023-08-24T04:45:51;11.13;;;6.65;;
17347;SDS011;8791;50.876;4.342;2023-08-24T04:48:19;10.27;;;6.90;;
17347;SDS011;8791;50.876;4.342;2023-08-24T04:50:46;8.07;;;6.70;;
17347;SDS011;8791;50.876;4.342;2023-08-24T04:53:16;12.40;;;7.28;;
17347;SDS011;8791;50.876;4.342;2023-08-24T04:55:44;14.18;;;6.72;;
17347;SDS011;8791;50.876;4.342;2023-08-24T04:58:12;17.05;;;6.85;;
17347;SDS011;8791;50.876;4.342;2023-08-24T05:00:39;15.90;;;7.05;;
17347;SDS011;8791;50.876;4.342;2023-08-24T05:03:09;13.30;;;7.25;;
17347;SDS011;8791;50.876;4.342;2023-08-24T05:05:47;14.68;;;6.50;;
17347;SDS011;8791;50.876;4.342;2023-08-24T05:08:19;12.77;;;6.65;;
17347;SDS011;8791;50.876;4.342;2023-08-24T05:10:51;16.63;;;7.60;;
17347;SDS011;8791;50.876;4.342;2023-08-24T05:13:22;12.90;;;7.38;;
17347;SDS011;8791;50.876;4.342;2023-08-24T05:16:12;13.32;;;7.00;;
17347;SDS011;8791;50.876;4.342;2023-08-24T05:19:09;12.10;;;7.10;;
17347;SDS011;8791;50.876;4.342;2023-08-24T05:21:36;12.90;;;6.78;;
17347;SDS011;8791;50.876;4.342;2023-08-24T05:24:16;15.07;;;8.02;;
17347;SDS011;8791;50.876;4.342;2023-08-24T05:26:46;14.70;;;7.20;;
17347;SDS011;8791;50.876;4.342;2023-08-24T05:29:13;16.42;;;7.07;;
17347;SDS011;8791;50.876;4.342;2023-08-24T05:31:48;22.63;;;7.85;;
17347;SDS011;8791;50.876;4.342;2023-08-24T05:34:15;16.77;;;6.90;;
17347;SDS011;8791;50.876;4.342;2023-08-24T05:36:46;20.73;;;7.75;;
17347;SDS011;8791;50.876;4.342;2023-08-24T05:39:18;18.30;;;6.95;;
17347;SDS011;8791;50.876;4.342;2023-08-24T05:41:57;19.85;;;7.28;;
17347;SDS011;8791;50.876;4.342;2023-08-24T05:44:35;17.80;;;6.75;;
17347;SDS011;8791;50.876;4.342;2023-08-24T05:47:05;17.92;;;6.22;;
17347;SDS011;8791;50.876;4.342;2023-08-24T05:49:51;13.82;;;7.07;;
17347;SDS011;8791;50.876;4.342;2023-08-24T05:52:21;10.20;;;6.10;;
17347;SDS011;8791;50.876;4.342;2023-08-24T05:54:57;22.00;;;6.60;;
17347;SDS011;8791;50.876;4.342;2023-08-24T05:57:38;9.80;;;6.07;;
17347;SDS011;8791;50.876;4.342;2023-08-24T06:00:08;11.63;;;6.32;;
17347;SDS011;8791;50.876;4.342;2023-08-24T06:02:36;9.55;;;6.53;;
17347;SDS011;8791;50.876;4.342;2023-08-24T06:05:13;15.93;;;6.20;;
17347;SDS011;8791;50.876;4.342;2023-08-24T06:07:48;11.27;;;5.90;;
17347;SDS011;8791;50.876;4.342;2023-08-24T06:10:19;19.08;;;6.45;;
17347;SDS011;8791;50.876;4.342;2023-08-24T06:12:46;12.20;;;6.05;;
17347;SDS011;8791;50.876;4.342;2023-08-24T06:15:13;12.18;;;5.07;;
17347;SDS011;8791;50.876;4.342;2023-08-24T06:17:44;10.45;;;5.72;;
17347;SDS011;8791;50.876;4.342;2023-08-24T06:20:13;14.98;;;5.97;;
17347;SDS011;8791;50.876;4.342;2023-08-24T06:22:54;16.25;;;5.75;;
17347;SDS011;8791;50.876;4.342;2023-08-24T06:25:34;16.45;;;5.28;;
17347;SDS011;8791;50.876;4.342;2023-08-24T06:28:04;10.88;;;5.28;;
17347;SDS011;8791;50.876;4.342;2023-08-24T06:30:39;12.05;;;4.93;;
17347;SDS011;8791;50.876;4.342;2023-08-24T06:33:16;15.27;;;5.28;;
17347;SDS011;8791;50.876;4.342;2023-08-24T06:36:07;10.73;;;4.82;;
17347;SDS011;8791;50.876;4.342;2023-08-24T06:38:48;11.98;;;4.90;;
17347;SDS011;8791;50.876;4.342;2023-08-24T06:44:04;13.95;;;5.38;;
17347;SDS011;8791;50.876;4.342;2023-08-24T06:46:31;12.85;;;5.15;;
17347;SDS011;8791;50.876;4.342;2023-08-24T06:49:07;14.18;;;5.65;;
17347;SDS011;8791;50.876;4.342;2023-08-24T06:52:19;13.63;;;4.93;;
17347;SDS011;8791;50.876;4.342;2023-08-24T06:54:48;15.70;;;5.82;;
17347;SDS011;8791;50.876;4.342;2023-08-24T06:57:20;11.02;;;5.40;;
17347;SDS011;8791;50.876;4.342;2023-08-24T06:59:51;13.52;;;5.80;;
17347;SDS011;8791;50.876;4.342;2023-08-24T07:02:18;19.70;;;6.10;;
17347;SDS011;8791;50.876;4.342;2023-08-24T07:04:50;20.50;;;5.93;;
17347;SDS011;8791;50.876;4.342;2023-08-24T07:07:17;11.00;;;6.07;;
17347;SDS011;8791;50.876;4.342;2023-08-24T07:09:44;20.48;;;6.47;;
17347;SDS011;8791;50.876;4.342;2023-08-24T07:12:11;10.77;;;6.60;;
17347;SDS011;8791;50.876;4.342;2023-08-24T07:14:44;13.38;;;6.80;;
17347;SDS011;8791;50.876;4.342;2023-08-24T07:17:13;19.52;;;6.25;;
17347;SDS011;8791;50.876;4.342;2023-08-24T07:20:00;10.75;;;5.53;;
17347;SDS011;8791;50.876;4.342;2023-08-24T07:22:39;16.25;;;6.03;;
17347;SDS011;8791;50.876;4.342;2023-08-24T07:25:08;23.10;;;6.00;;
17347;SDS011;8791;50.876;4.342;2023-08-24T07:27:40;9.88;;;5.60;;
17347;SDS011;8791;50.876;4.342;2023-08-24T07:30:09;13.90;;;6.10;;
17347;SDS011;8791;50.876;4.342;2023-08-24T07:32:39;22.20;;;6.20;;
17347;SDS011;8791;50.876;4.342;2023-08-24T07:35:08;15.98;;;6.00;;
17347;SDS011;8791;50.876;4.342;2023-08-24T07:37:45;10.13;;;5.40;;
17347;SDS011;8791;50.876;4.342;2023-08-24T07:40:47;14.35;;;5.70;;
17347;SDS011;8791;50.876;4.342;2023-08-24T07:43:04;15.45;;;5.97;;
17347;SDS011;8791;50.876;4.342;2023-08-24T07:45:32;21.25;;;6.03;;
17347;SDS011;8791;50.876;4.342;2023-08-24T07:47:59;15.98;;;5.88;;
17347;SDS011;8791;50.876;4.342;2023-08-24T07:50:29;11.52;;;5.65;;
17347;SDS011;8791;50.876;4.342;2023-08-24T07:52:56;14.05;;;5.97;;
17347;SDS011;8791;50.876;4.342;2023-08-24T07:55:28;11.70;;;6.00;;
17347;SDS011;8791;50.876;4.342;2023-08-24T07:58:00;22.52;;;5.95;;
17347;SDS011;8791;50.876;4.342;2023-08-24T08:00:29;15.52;;;6.10;;
17347;SDS011;8791;50.876;4.342;2023-08-24T08:02:57;14.40;;;6.22;;
17347;SDS011;8791;50.876;4.342;2023-08-24T08:05:24;13.63;;;5.95;;
17347;SDS011;8791;50.876;4.342;2023-08-24T08:07:51;10.75;;;6.57;;
17347;SDS011;8791;50.876;4.342;2023-08-24T08:10:18;14.98;;;6.93;;
17347;SDS011;8791;50.876;4.342;2023-08-24T08:12:46;13.85;;;7.28;;
17347;SDS011;8791;50.876;4.342;2023-08-24T08:15:13;20.95;;;6.97;;
17347;SDS011;8791;50.876;4.342;2023-08-24T08:17:40;24.60;;;6.93;;
17347;SDS011;8791;50.876;4.342;2023-08-24T08:20:10;21.30;;;7.45;;
17347;SDS011;8791;50.876;4.342;2023-08-24T08:22:40;18.38;;;7.78;;
17347;SDS011;8791;50.876;4.342;2023-08-24T08:25:07;14.90;;;6.78;;
17347;SDS011;8791;50.876;4.342;2023-08-24T08:27:34;11.35;;;6.82;;
17347;SDS011;8791;50.876;4.342;2023-08-24T08:30:01;15.02;;;7.05;;
17347;SDS011;8791;50.876;4.342;2023-08-24T08:32:30;12.10;;;6.80;;
17347;SDS011;8791;50.876;4.342;2023-08-24T08:34:57;17.35;;;7.22;;
17347;SDS011;8791;50.876;4.342;2023-08-24T08:37:26;13.98;;;6.35;;
17347;SDS011;8791;50.876;4.342;2023-08-24T08:39:53;17.05;;;8.13;;
17347;SDS011;8791;50.876;4.342;2023-08-24T08:42:20;17.23;;;6.32;;
17347;SDS011;8791;50.876;4.342;2023-08-24T08:44:47;29.23;;;7.70;;
17347;SDS011;8791;50.876;4.342;2023-08-24T08:47:15;24.38;;;7.82;;
17347;SDS011;8791;50.876;4.342;2023-08-24T08:49:44;11.73;;;7.35;;
17347;SDS011;8791;50.876;4.342;2023-08-24T08:52:13;19.77;;;6.97;;
17347;SDS011;8791;50.876;4.342;2023-08-24T08:54:42;13.50;;;7.20;;
17347;SDS011;8791;50.876;4.342;2023-08-24T08:57:09;17.67;;;6.97;;
17347;SDS011;8791;50.876;4.342;2023-08-24T08:59:36;18.80;;;7.45;;
17347;SDS011;8791;50.876;4.342;2023-08-24T09:02:07;21.40;;;6.75;;
17347;SDS011;8791;50.876;4.342;2023-08-24T09:04:41;17.02;;;7.00;;
17347;SDS011;8791;50.876;4.342;2023-08-24T09:07:10;16.40;;;7.75;;
17347;SDS011;8791;50.876;4.342;2023-08-24T09:09:38;27.25;;;7.65;;
17347;SDS011;8791;50.876;4.342;2023-08-24T09:12:07;10.80;;;6.68;;
17347;SDS011;8791;50.876;4.342;2023-08-24T09:14:34;21.45;;;7.00;;
17347;SDS011;8791;50.876;4.342;2023-08-24T09:17:01;24.17;;;7.22;;
17347;SDS011;8791;50.876;4.342;2023-08-24T09:19:29;26.50;;;6.82;;
17347;SDS011;8791;50.876;4.342;2023-08-24T09:21:57;22.50;;;6.88;;
17347;SDS011;8791;50.876;4.342;2023-08-24T09:24:31;17.25;;;7.72;;
17347;SDS011;8791;50.876;4.342;2023-08-24T09:26:59;16.55;;;6.25;;
17347;SDS011;8791;50.876;4.342;2023-08-24T09:29:27;21.35;;;6.80;;
17347;SDS011;8791;50.876;4.342;2023-08-24T09:32:03;21.05;;;6.22;;
17347;SDS011;8791;50.876;4.342;2023-08-24T09:34:30;15.65;;;6.20;;
17347;SDS011;8791;50.876;4.342;2023-08-24T09:36:57;19.30;;;7.00;;
17347;SDS011;8791;50.876;4.342;2023-08-24T09:39:24;21.10;;;7.32;;
17347;SDS011;8791;50.876;4.342;2023-08-24T09:41:51;12.75;;;6.00;;
17347;SDS011;8791;50.876;4.342;2023-08-24T09:44:18;18.48;;;6.38;;
17347;SDS011;8791;50.876;4.342;2023-08-24T09:46:46;13.63;;;6.90;;
17347;SDS011;8791;50.876;4.342;2023-08-24T09:49:13;6.63;;;5.88;;
17347;SDS011;8791;50.876;4.342;2023-08-24T09:51:40;10.60;;;6.30;;
17347;SDS011;8791;50.876;4.342;2023-08-24T09:54:10;12.60;;;5.80;;
17347;SDS011;8791;50.876;4.342;2023-08-24T09:56:38;5.82;;;4.82;;
17347;SDS011;8791;50.876;4.342;2023-08-24T09:59:16;10.32;;;5.55;;
17347;SDS011;8791;50.876;4.342;2023-08-24T10:01:43;20.05;;;7.05;;
17347;SDS011;8791;50.876;4.342;2023-08-24T10:04:13;12.38;;;6.53;;
17347;SDS011;8791;50.876;4.342;2023-08-24T10:06:42;12.75;;;5.95;;
17347;SDS011;8791;50.876;4.342;2023-08-24T10:09:11;10.38;;;5.80;;
17347;SDS011;8791;50.876;4.342;2023-08-24T10:11:48;15.23;;;5.93;;
17347;SDS011;8791;50.876;4.342;2023-08-24T10:14:19;8.98;;;5.30;;
17347;SDS011;8791;50.876;4.342;2023-08-24T10:16:52;14.15;;;5.75;;
17347;SDS011;8791;50.876;4.342;2023-08-24T10:19:20;17.77;;;5.88;;
17347;SDS011;8791;50.876;4.342;2023-08-24T10:21:49;12.38;;;6.32;;
17347;SDS011;8791;50.876;4.342;2023-08-24T10:24:17;14.13;;;6.05;;
17347;SDS011;8791;50.876;4.342;2023-08-24T10:26:46;17.35;;;7.80;;
17347;SDS011;8791;50.876;4.342;2023-08-24T10:29:14;12.55;;;6.57;;
17347;SDS011;8791;50.876;4.342;2023-08-24T10:31:42;11.23;;;7.60;;
17347;SDS011;8791;50.876;4.342;2023-08-24T10:34:11;15.90;;;7.25;;
17347;SDS011;8791;50.876;4.342;2023-08-24T10:36:38;11.48;;;8.23;;
17347;SDS011;8791;50.876;4.342;2023-08-24T10:39:06;9.57;;;6.78;;
17347;SDS011;8791;50.876;4.342;2023-08-24T10:41:46;14.25;;;6.70;;
17347;SDS011;8791;50.876;4.342;2023-08-24T10:44:20;8.43;;;6.55;;
17347;SDS011;8791;50.876;4.342;2023-08-24T10:47:12;10.45;;;6.93;;
17347;SDS011;8791;50.876;4.342;2023-08-24T10:49:57;9.40;;;6.30;;
17347;SDS011;8791;50.876;4.342;2023-08-24T10:52:29;12.63;;;7.25;;
17347;SDS011;8791;50.876;4.342;2023-08-24T10:54:58;8.88;;;6.85;;
17347;SDS011;8791;50.876;4.342;2023-08-24T10:57:34;9.80;;;6.90;;
17347;SDS011;8791;50.876;4.342;2023-08-24T11:00:05;12.65;;;6.85;;
17347;SDS011;8791;50.876;4.342;2023-08-24T11:02:43;8.80;;;6.63;;
17347;SDS011;8791;50.876;4.342;2023-08-24T11:05:16;7.43;;;5.15;;
17347;SDS011;8791;50.876;4.342;2023-08-24T11:07:51;9.00;;;5.32;;
17347;SDS011;8791;50.876;4.342;2023-08-24T11:10:20;10.73;;;6.13;;
17347;SDS011;8791;50.876;4.342;2023-08-24T11:13:07;9.70;;;6.15;;
17347;SDS011;8791;50.876;4.342;2023-08-24T11:15:42;12.43;;;5.70;;
17347;SDS011;8791;50.876;4.342;2023-08-24T11:18:11;10.45;;;4.63;;
17347;SDS011;8791;50.876;4.342;2023-08-24T11:20:50;10.00;;;4.53;;
17347;SDS011;8791;50.876;4.342;2023-08-24T11:23:18;5.95;;;4.88;;
17347;SDS011;8791;50.876;4.342;2023-08-24T11:25:46;9.82;;;4.40;;
17347;SDS011;8791;50.876;4.342;2023-08-24T11:28:17;12.02;;;5.47;;
17347;SDS011;8791;50.876;4.342;2023-08-24T11:30:46;5.97;;;4.40;;
17347;SDS011;8791;50.876;4.342;2023-08-24T11:33:13;7.15;;;4.32;;
17347;SDS011;8791;50.876;4.342;2023-08-24T11:35:41;9.38;;;5.38;;
17347;SDS011;8791;50.876;4.342;2023-08-24T11:38:11;7.82;;;4.97;;
17347;SDS011;8791;50.876;4.342;2023-08-24T11:40:39;8.77;;;5.63;;
17347;SDS011;8791;50.876;4.342;2023-08-24T11:43:06;7.22;;;4.75;;
17347;SDS011;8791;50.876;4.342;2023-08-24T11:45:33;14.43;;;5.25;;
17347;SDS011;8791;50.876;4.342;2023-08-24T11:48:03;5.70;;;4.60;;
17347;SDS011;8791;50.876;4.342;2023-08-24T11:50:30;7.38;;;4.97;;
17347;SDS011;8791;50.876;4.342;2023-08-24T11:52:59;7.47;;;4.03;;
17347;SDS011;8791;50.876;4.342;2023-08-24T11:55:29;6.95;;;4.78;;
17347;SDS011;8791;50.876;4.342;2023-08-24T11:57:57;11.20;;;4.97;;
17347;SDS011;8791;50.876;4.342;2023-08-24T12:00:25;13.02;;;6.43;;
17347;SDS011;8791;50.876;4.342;2023-08-24T12:06:18;10.80;;;5.00;;
17347;SDS011;8791;50.876;4.342;2023-08-24T12:08:45;12.82;;;5.75;;
17347;SDS011;8791;50.876;4.342;2023-08-24T12:11:15;6.82;;;6.13;;
17347;SDS011;8791;50.876;4.342;2023-08-24T12:13:43;13.93;;;6.78;;
17347;SDS011;8791;50.876;4.342;2023-08-24T12:16:12;10.35;;;6.28;;
17347;SDS011;8791;50.876;4.342;2023-08-24T12:18:46;9.10;;;6.10;;
17347;SDS011;8791;50.876;4.342;2023-08-24T12:21:14;11.48;;;6.32;;
17347;SDS011;8791;50.876;4.342;2023-08-24T12:23:41;9.48;;;6.03;;
17347;SDS011;8791;50.876;4.342;2023-08-24T12:26:08;9.85;;;6.70;;
17347;SDS011;8791;50.876;4.342;2023-08-24T12:28:48;11.50;;;6.32;;
17347;SDS011;8791;50.876;4.342;2023-08-24T12:31:16;10.00;;;5.72;;
17347;SDS011;8791;50.876;4.342;2023-08-24T12:33:43;6.53;;;5.20;;
17347;SDS011;8791;50.876;4.342;2023-08-24T12:36:10;8.75;;;4.95;;
17347;SDS011;8791;50.876;4.342;2023-08-24T12:38:38;11.68;;;5.57;;
17347;SDS011;8791;50.876;4.342;2023-08-24T12:41:06;8.23;;;5.00;;
17347;SDS011;8791;50.876;4.342;2023-08-24T12:43:35;9.73;;;5.40;;
17347;SDS011;8791;50.876;4.342;2023-08-24T12:46:02;11.77;;;5.72;;
17347;SDS011;8791;50.876;4.342;2023-08-24T12:48:30;11.82;;;5.28;;
17347;SDS011;8791;50.876;4.342;2023-08-24T12:50:57;6.72;;;4.47;;
17347;SDS011;8791;50.876;4.342;2023-08-24T12:53:23;7.70;;;4.80;;
17347;SDS011;8791;50.876;4.342;2023-08-24T12:55:50;8.77;;;3.95;;
17347;SDS011;8791;50.876;4.342;2023-08-24T12:58:17;8.00;;;3.83;;
17347;SDS011;8791;50.876;4.342;2023-08-24T13:00:46;5.95;;;3.17;;
17347;SDS011;8791;50.876;4.342;2023-08-24T13:03:13;7.82;;;3.90;;
17347;SDS011;8791;50.876;4.342;2023-08-24T13:05:41;10.48;;;4.22;;
17347;SDS011;8791;50.876;4.342;2023-08-24T13:08:08;4.55;;;2.97;;
17347;SDS011;8791;50.876;4.342;2023-08-24T13:10:34;10.23;;;2.80;;
17347;SDS011;8791;50.876;4.342;2023-08-24T13:13:02;6.45;;;3.83;;
17347;SDS011;8791;50.876;4.342;2023-08-24T13:15:37;8.27;;;2.85;;
17347;SDS011;8791;50.876;4.342;2023-08-24T13:18:06;4.68;;;2.53;;
17347;SDS011;8791;50.876;4.342;2023-08-24T13:20:33;7.43;;;3.00;;
17347;SDS011;8791;50.876;4.342;2023-08-24T13:23:00;7.50;;;2.85;;
17347;SDS011;8791;50.876;4.342;2023-08-24T13:25:27;4.57;;;2.45;;
17347;SDS011;8791;50.876;4.342;2023-08-24T13:27:54;5.47;;;2.75;;
17347;SDS011;8791;50.876;4.342;2023-08-24T13:30:21;5.13;;;2.85;;
17347;SDS011;8791;50.876;4.342;2023-08-24T13:32:48;6.30;;;2.95;;
17347;SDS011;8791;50.876;4.342;2023-08-24T13:35:16;9.90;;;3.75;;
17347;SDS011;8791;50.876;4.342;2023-08-24T13:37:43;7.60;;;2.97;;
17347;SDS011;8791;50.876;4.342;2023-08-24T13:40:10;14.52;;;3.33;;
17347;SDS011;8791;50.876;4.342;2023-08-24T13:42:37;26.35;;;4.32;;
17347;SDS011;8791;50.876;4.342;2023-08-24T13:45:07;10.40;;;3.45;;
17347;SDS011;8791;50.876;4.342;2023-08-24T13:47:35;10.68;;;3.00;;
17347;SDS011;8791;50.876;4.342;2023-08-24T13:50:03;12.13;;;3.30;;
17347;SDS011;8791;50.876;4.342;2023-08-24T13:52:32;6.93;;;3.28;;
17347;SDS011;8791;50.876;4.342;2023-08-24T13:54:59;10.68;;;3.60;;
17347;SDS011;8791;50.876;4.342;2023-08-24T13:57:28;10.27;;;3.00;;
17347;SDS011;8791;50.876;4.342;2023-08-24T13:59:56;7.18;;;2.70;;
17347;SDS011;8791;50.876;4.342;2023-08-24T14:02:22;9.55;;;2.95;;
17347;SDS011;8791;50.876;4.342;2023-08-24T14:04:49;4.53;;;2.85;;
17347;SDS011;8791;50.876;4.342;2023-08-24T14:07:17;7.78;;;2.70;;
17347;SDS011;8791;50.876;4.342;2023-08-24T14:09:46;4.63;;;2.42;;
17347;SDS011;8791;50.876;4.342;2023-08-24T14:12:13;14.07;;;3.03;;
17347;SDS011;8791;50.876;4.342;2023-08-24T14:14:39;8.50;;;2.67;;
17347;SDS011;8791;50.876;4.342;2023-08-24T14:17:07;6.85;;;2.75;;
17347;SDS011;8791;50.876;4.342;2023-08-24T14:19:34;4.07;;;2.65;;
17347;SDS011;8791;50.876;4.342;2023-08-24T14:22:01;4.68;;;2.47;;
17347;SDS011;8791;50.876;4.342;2023-08-24T14:24:28;7.95;;;2.67;;
17347;SDS011;8791;50.876;4.342;2023-08-24T14:26:56;7.18;;;2.33;;
17347;SDS011;8791;50.876;4.342;2023-08-24T14:29:23;6.63;;;2.95;;
17347;SDS011;8791;50.876;4.342;2023-08-24T14:31:50;7.53;;;2.13;;
17347;SDS011;8791;50.876;4.342;2023-08-24T14:34:17;2.80;;;1.98;;
17347;SDS011;8791;50.876;4.342;2023-08-24T14:36:44;4.50;;;2.35;;
17347;SDS011;8791;50.876;4.342;2023-08-24T14:39:11;5.57;;;2.80;;
17347;SDS011;8791;50.876;4.342;2023-08-24T14:41:38;50.60;;;12.60;;
17347;SDS011;8791;50.876;4.342;2023-08-24T14:44:07;22.23;;;6.22;;
17347;SDS011;8791;50.876;4.342;2023-08-24T14:46:34;5.88;;;3.35;;
17347;SDS011;8791;50.876;4.342;2023-08-24T14:49:01;5.40;;;3.00;;
17347;SDS011;8791;50.876;4.342;2023-08-24T14:51:28;11.07;;;2.63;;
17347;SDS011;8791;50.876;4.342;2023-08-24T14:53:55;4.28;;;2.55;;
17347;SDS011;8791;50.876;4.342;2023-08-24T14:56:22;78.40;;;14.90;;
17347;SDS011;8791;50.876;4.342;2023-08-24T14:58:50;8.60;;;2.90;;
17347;SDS011;8791;50.876;4.342;2023-08-24T15:01:18;6.80;;;2.63;;
17347;SDS011;8791;50.876;4.342;2023-08-24T15:03:45;5.60;;;2.13;;
17347;SDS011;8791;50.876;4.342;2023-08-24T15:06:12;4.30;;;2.00;;
17347;SDS011;8791;50.876;4.342;2023-08-24T15:08:39;7.07;;;2.40;;
17347;SDS011;8791;50.876;4.342;2023-08-24T15:11:06;7.93;;;2.05;;
17347;SDS011;8791;50.876;4.342;2023-08-24T15:13:33;4.93;;;2.22;;